sensor_id;sensor_type;location;lat;lon;timestamp;P1;durP1;ratioP1;P2;durP2;ratioP2
21266;SDS011;10791;53.108;18.326;2023-06-14T00:02:29;11.33;;;7.50;;
21266;SDS011;10791;53.108;18.326;2023-06-14T00:07:37;11.73;;;7.70;;
21266;SDS011;10791;53.108;18.326;2023-06-14T00:12:44;9.10;;;6.50;;
21266;SDS011;10791;53.108;18.326;2023-06-14T00:17:48;13.90;;;7.13;;
21266;SDS011;10791;53.108;18.326;2023-06-14T00:22:51;10.93;;;6.40;;
21266;SDS011;10791;53.108;18.326;2023-06-14T00:27:55;8.30;;;6.70;;
21266;SDS011;10791;53.108;18.326;2023-06-14T00:32:59;11.87;;;6.90;;
21266;SDS011;10791;53.108;18.326;2023-06-14T00:38:03;14.93;;;7.03;;
21266;SDS011;10791;53.108;18.326;2023-06-14T00:43:06;8.07;;;6.43;;
21266;SDS011;10791;53.108;18.326;2023-06-14T00:48:10;8.30;;;6.47;;
21266;SDS011;10791;53.108;18.326;2023-06-14T00:53:15;10.37;;;7.13;;
21266;SDS011;10791;53.108;18.326;2023-06-14T00:58:20;10.70;;;6.23;;
21266;SDS011;10791;53.108;18.326;2023-06-14T01:03:25;9.70;;;7.30;;
21266;SDS011;10791;53.108;18.326;2023-06-14T01:08:31;10.37;;;7.60;;
21266;SDS011;10791;53.108;18.326;2023-06-14T01:13:45;11.20;;;7.60;;
21266;SDS011;10791;53.108;18.326;2023-06-14T01:18:49;11.60;;;7.93;;
21266;SDS011;10791;53.108;18.326;2023-06-14T01:23:59;12.30;;;7.73;;
21266;SDS011;10791;53.108;18.326;2023-06-14T01:29:02;10.57;;;8.00;;
21266;SDS011;10791;53.108;18.326;2023-06-14T01:34:06;10.57;;;8.00;;
21266;SDS011;10791;53.108;18.326;2023-06-14T01:39:14;16.07;;;8.43;;
21266;SDS011;10791;53.108;18.326;2023-06-14T01:44:18;11.73;;;8.83;;
21266;SDS011;10791;53.108;18.326;2023-06-14T01:49:22;11.03;;;7.73;;
21266;SDS011;10791;53.108;18.326;2023-06-14T01:54:26;13.40;;;8.47;;
21266;SDS011;10791;53.108;18.326;2023-06-14T01:59:29;11.03;;;8.70;;
21266;SDS011;10791;53.108;18.326;2023-06-14T02:04:33;12.17;;;9.37;;
21266;SDS011;10791;53.108;18.326;2023-06-14T02:09:37;9.43;;;8.33;;
21266;SDS011;10791;53.108;18.326;2023-06-14T02:14:40;10.20;;;8.17;;
21266;SDS011;10791;53.108;18.326;2023-06-14T02:19:44;12.80;;;9.93;;
21266;SDS011;10791;53.108;18.326;2023-06-14T02:24:47;13.63;;;9.67;;
21266;SDS011;10791;53.108;18.326;2023-06-14T02:30:00;12.27;;;9.17;;
21266;SDS011;10791;53.108;18.326;2023-06-14T02:35:04;14.07;;;8.63;;
21266;SDS011;10791;53.108;18.326;2023-06-14T02:40:09;11.83;;;8.70;;
21266;SDS011;10791;53.108;18.326;2023-06-14T02:45:12;10.20;;;7.77;;
21266;SDS011;10791;53.108;18.326;2023-06-14T02:50:16;11.33;;;7.77;;
21266;SDS011;10791;53.108;18.326;2023-06-14T02:55:20;11.90;;;6.90;;
21266;SDS011;10791;53.108;18.326;2023-06-14T03:00:24;11.87;;;7.47;;
21266;SDS011;10791;53.108;18.326;2023-06-14T03:05:27;10.33;;;7.43;;
21266;SDS011;10791;53.108;18.326;2023-06-14T03:10:30;12.17;;;7.27;;
21266;SDS011;10791;53.108;18.326;2023-06-14T03:15:35;13.27;;;7.10;;
21266;SDS011;10791;53.108;18.326;2023-06-14T03:20:38;13.23;;;6.60;;
21266;SDS011;10791;53.108;18.326;2023-06-14T03:25:41;9.87;;;6.83;;
21266;SDS011;10791;53.108;18.326;2023-06-14T03:30:45;11.13;;;6.30;;
21266;SDS011;10791;53.108;18.326;2023-06-14T03:35:48;11.30;;;6.80;;
21266;SDS011;10791;53.108;18.326;2023-06-14T03:40:52;10.27;;;6.60;;
21266;SDS011;10791;53.108;18.326;2023-06-14T03:45:56;13.87;;;7.20;;
21266;SDS011;10791;53.108;18.326;2023-06-14T03:50:59;10.03;;;6.17;;
21266;SDS011;10791;53.108;18.326;2023-06-14T03:56:03;10.77;;;6.43;;
21266;SDS011;10791;53.108;18.326;2023-06-14T04:01:06;10.30;;;6.40;;
21266;SDS011;10791;53.108;18.326;2023-06-14T04:06:10;12.93;;;7.20;;
21266;SDS011;10791;53.108;18.326;2023-06-14T04:11:13;11.60;;;7.57;;
21266;SDS011;10791;53.108;18.326;2023-06-14T04:16:16;8.73;;;7.27;;
21266;SDS011;10791;53.108;18.326;2023-06-14T04:21:19;12.20;;;7.43;;
21266;SDS011;10791;53.108;18.326;2023-06-14T04:26:23;11.47;;;7.43;;
21266;SDS011;10791;53.108;18.326;2023-06-14T04:31:32;11.90;;;7.73;;
21266;SDS011;10791;53.108;18.326;2023-06-14T04:36:36;11.30;;;7.97;;
21266;SDS011;10791;53.108;18.326;2023-06-14T04:41:39;11.37;;;8.37;;
21266;SDS011;10791;53.108;18.326;2023-06-14T04:46:42;13.50;;;9.33;;
21266;SDS011;10791;53.108;18.326;2023-06-14T04:51:49;12.80;;;9.63;;
21266;SDS011;10791;53.108;18.326;2023-06-14T04:56:59;14.97;;;8.53;;
21266;SDS011;10791;53.108;18.326;2023-06-14T05:02:02;15.90;;;9.03;;
21266;SDS011;10791;53.108;18.326;2023-06-14T05:07:06;15.60;;;9.60;;
21266;SDS011;10791;53.108;18.326;2023-06-14T05:12:10;15.67;;;9.47;;
21266;SDS011;10791;53.108;18.326;2023-06-14T05:17:14;15.63;;;9.67;;
21266;SDS011;10791;53.108;18.326;2023-06-14T05:22:19;12.17;;;8.83;;
21266;SDS011;10791;53.108;18.326;2023-06-14T05:27:23;12.77;;;7.90;;
21266;SDS011;10791;53.108;18.326;2023-06-14T05:32:27;13.97;;;7.70;;
21266;SDS011;10791;53.108;18.326;2023-06-14T05:37:30;10.70;;;8.67;;
21266;SDS011;10791;53.108;18.326;2023-06-14T05:42:34;12.23;;;8.00;;
21266;SDS011;10791;53.108;18.326;2023-06-14T05:47:37;13.38;;;7.53;;
21266;SDS011;10791;53.108;18.326;2023-06-14T05:52:40;13.40;;;7.30;;
21266;SDS011;10791;53.108;18.326;2023-06-14T05:57:44;9.18;;;6.90;;
21266;SDS011;10791;53.108;18.326;2023-06-14T06:02:47;9.48;;;6.85;;
21266;SDS011;10791;53.108;18.326;2023-06-14T06:07:51;10.45;;;6.28;;
21266;SDS011;10791;53.108;18.326;2023-06-14T06:12:54;10.30;;;6.20;;
21266;SDS011;10791;53.108;18.326;2023-06-14T06:17:58;9.65;;;6.28;;
21266;SDS011;10791;53.108;18.326;2023-06-14T06:23:01;11.27;;;6.05;;
21266;SDS011;10791;53.108;18.326;2023-06-14T06:28:04;12.25;;;6.97;;
21266;SDS011;10791;53.108;18.326;2023-06-14T06:33:07;11.88;;;7.28;;
21266;SDS011;10791;53.108;18.326;2023-06-14T06:38:11;10.20;;;6.75;;
21266;SDS011;10791;53.108;18.326;2023-06-14T06:43:14;10.35;;;7.38;;
21266;SDS011;10791;53.108;18.326;2023-06-14T06:48:19;11.70;;;6.82;;
21266;SDS011;10791;53.108;18.326;2023-06-14T06:53:22;13.30;;;6.18;;
21266;SDS011;10791;53.108;18.326;2023-06-14T06:58:41;13.75;;;8.10;;
21266;SDS011;10791;53.108;18.326;2023-06-14T07:03:44;14.13;;;7.90;;
21266;SDS011;10791;53.108;18.326;2023-06-14T07:08:47;9.85;;;7.50;;
21266;SDS011;10791;53.108;18.326;2023-06-14T07:13:50;12.45;;;7.75;;
21266;SDS011;10791;53.108;18.326;2023-06-14T07:18:54;9.90;;;7.53;;
21266;SDS011;10791;53.108;18.326;2023-06-14T07:23:58;14.07;;;7.93;;
21266;SDS011;10791;53.108;18.326;2023-06-14T07:29:01;11.45;;;8.10;;
21266;SDS011;10791;53.108;18.326;2023-06-14T07:34:05;14.77;;;7.30;;
21266;SDS011;10791;53.108;18.326;2023-06-14T07:39:08;13.07;;;7.72;;
21266;SDS011;10791;53.108;18.326;2023-06-14T07:44:13;11.15;;;8.27;;
21266;SDS011;10791;53.108;18.326;2023-06-14T07:49:16;12.18;;;6.72;;
21266;SDS011;10791;53.108;18.326;2023-06-14T07:54:19;13.45;;;7.78;;
21266;SDS011;10791;53.108;18.326;2023-06-14T07:59:27;8.95;;;5.43;;
21266;SDS011;10791;53.108;18.326;2023-06-14T08:04:31;10.63;;;5.22;;
21266;SDS011;10791;53.108;18.326;2023-06-14T08:09:34;11.25;;;5.25;;
21266;SDS011;10791;53.108;18.326;2023-06-14T08:14:41;12.75;;;5.25;;
21266;SDS011;10791;53.108;18.326;2023-06-14T08:19:45;10.02;;;5.15;;
21266;SDS011;10791;53.108;18.326;2023-06-14T08:24:48;8.25;;;4.82;;
21266;SDS011;10791;53.108;18.326;2023-06-14T08:29:56;11.65;;;4.85;;
21266;SDS011;10791;53.108;18.326;2023-06-14T08:34:59;15.25;;;5.53;;
21266;SDS011;10791;53.108;18.326;2023-06-14T08:40:18;7.72;;;5.32;;
21266;SDS011;10791;53.108;18.326;2023-06-14T08:45:25;11.05;;;5.15;;
21266;SDS011;10791;53.108;18.326;2023-06-14T08:50:31;15.73;;;6.13;;
21266;SDS011;10791;53.108;18.326;2023-06-14T08:55:37;9.55;;;4.57;;
21266;SDS011;10791;53.108;18.326;2023-06-14T09:00:44;12.23;;;5.25;;
21266;SDS011;10791;53.108;18.326;2023-06-14T09:05:49;10.48;;;5.50;;
21266;SDS011;10791;53.108;18.326;2023-06-14T09:10:53;10.82;;;5.38;;
21266;SDS011;10791;53.108;18.326;2023-06-14T09:15:58;8.30;;;5.70;;
21266;SDS011;10791;53.108;18.326;2023-06-14T09:21:02;9.32;;;5.75;;
21266;SDS011;10791;53.108;18.326;2023-06-14T09:26:09;8.85;;;5.63;;
21266;SDS011;10791;53.108;18.326;2023-06-14T09:31:16;10.60;;;5.28;;
21266;SDS011;10791;53.108;18.326;2023-06-14T09:36:23;8.77;;;5.28;;
21266;SDS011;10791;53.108;18.326;2023-06-14T09:46:35;8.60;;;5.25;;
21266;SDS011;10791;53.108;18.326;2023-06-14T09:51:42;13.00;;;5.53;;
21266;SDS011;10791;53.108;18.326;2023-06-14T09:56:48;13.70;;;5.45;;
21266;SDS011;10791;53.108;18.326;2023-06-14T10:01:53;9.30;;;5.72;;
21266;SDS011;10791;53.108;18.326;2023-06-14T10:06:59;10.07;;;5.28;;
21266;SDS011;10791;53.108;18.326;2023-06-14T10:12:04;9.35;;;6.20;;
21266;SDS011;10791;53.108;18.326;2023-06-14T10:17:09;7.20;;;5.07;;
21266;SDS011;10791;53.108;18.326;2023-06-14T10:22:17;9.18;;;5.88;;
21266;SDS011;10791;53.108;18.326;2023-06-14T10:27:44;9.48;;;5.93;;
21266;SDS011;10791;53.108;18.326;2023-06-14T10:33:07;9.38;;;5.70;;
21266;SDS011;10791;53.108;18.326;2023-06-14T10:38:12;9.73;;;6.32;;
21266;SDS011;10791;53.108;18.326;2023-06-14T10:43:20;11.48;;;6.82;;
21266;SDS011;10791;53.108;18.326;2023-06-14T10:48:29;10.55;;;6.15;;
21266;SDS011;10791;53.108;18.326;2023-06-14T10:53:42;9.57;;;6.65;;
21266;SDS011;10791;53.108;18.326;2023-06-14T10:58:45;12.82;;;6.47;;
21266;SDS011;10791;53.108;18.326;2023-06-14T11:03:52;8.52;;;5.88;;
21266;SDS011;10791;53.108;18.326;2023-06-14T11:09:16;10.88;;;5.80;;
21266;SDS011;10791;53.108;18.326;2023-06-14T11:14:45;9.18;;;5.65;;
21266;SDS011;10791;53.108;18.326;2023-06-14T11:19:50;10.20;;;5.07;;
21266;SDS011;10791;53.108;18.326;2023-06-14T11:24:53;9.88;;;5.32;;
21266;SDS011;10791;53.108;18.326;2023-06-14T11:29:57;9.70;;;3.95;;
21266;SDS011;10791;53.108;18.326;2023-06-14T11:35:02;5.35;;;3.15;;
21266;SDS011;10791;53.108;18.326;2023-06-14T11:40:07;4.85;;;2.85;;
21266;SDS011;10791;53.108;18.326;2023-06-14T11:45:12;4.75;;;2.58;;
21266;SDS011;10791;53.108;18.326;2023-06-14T11:50:15;4.53;;;2.83;;
21266;SDS011;10791;53.108;18.326;2023-06-14T11:55:19;6.20;;;3.40;;
21266;SDS011;10791;53.108;18.326;2023-06-14T12:00:25;6.43;;;4.03;;
21266;SDS011;10791;53.108;18.326;2023-06-14T12:05:30;7.13;;;3.60;;
21266;SDS011;10791;53.108;18.326;2023-06-14T12:10:42;4.97;;;3.38;;
21266;SDS011;10791;53.108;18.326;2023-06-14T12:15:53;9.93;;;5.00;;
21266;SDS011;10791;53.108;18.326;2023-06-14T12:20:58;5.38;;;3.75;;
21266;SDS011;10791;53.108;18.326;2023-06-14T12:26:05;7.88;;;3.88;;
21266;SDS011;10791;53.108;18.326;2023-06-14T12:31:13;8.35;;;3.63;;
21266;SDS011;10791;53.108;18.326;2023-06-14T12:36:19;11.38;;;3.78;;
21266;SDS011;10791;53.108;18.326;2023-06-14T12:41:22;4.75;;;3.85;;
21266;SDS011;10791;53.108;18.326;2023-06-14T12:46:27;10.00;;;5.57;;
21266;SDS011;10791;53.108;18.326;2023-06-14T12:51:30;7.35;;;4.78;;
21266;SDS011;10791;53.108;18.326;2023-06-14T12:56:33;7.03;;;5.22;;
21266;SDS011;10791;53.108;18.326;2023-06-14T13:01:37;11.65;;;5.20;;
21266;SDS011;10791;53.108;18.326;2023-06-14T13:06:42;6.75;;;4.88;;
21266;SDS011;10791;53.108;18.326;2023-06-14T13:11:45;5.82;;;4.07;;
21266;SDS011;10791;53.108;18.326;2023-06-14T13:16:49;6.70;;;4.30;;
21266;SDS011;10791;53.108;18.326;2023-06-14T13:21:53;6.13;;;4.18;;
21266;SDS011;10791;53.108;18.326;2023-06-14T13:26:57;9.07;;;3.55;;
21266;SDS011;10791;53.108;18.326;2023-06-14T13:32:00;4.32;;;3.15;;
21266;SDS011;10791;53.108;18.326;2023-06-14T13:37:04;9.10;;;3.65;;
21266;SDS011;10791;53.108;18.326;2023-06-14T13:42:07;4.40;;;2.88;;
21266;SDS011;10791;53.108;18.326;2023-06-14T13:47:10;6.53;;;2.63;;
21266;SDS011;10791;53.108;18.326;2023-06-14T13:52:14;4.97;;;2.92;;
21266;SDS011;10791;53.108;18.326;2023-06-14T13:57:18;2.85;;;2.50;;
21266;SDS011;10791;53.108;18.326;2023-06-14T14:02:22;4.50;;;2.45;;
21266;SDS011;10791;53.108;18.326;2023-06-14T14:07:29;4.10;;;2.78;;
21266;SDS011;10791;53.108;18.326;2023-06-14T14:12:33;5.28;;;2.72;;
21266;SDS011;10791;53.108;18.326;2023-06-14T14:17:37;5.47;;;3.40;;
21266;SDS011;10791;53.108;18.326;2023-06-14T14:22:41;5.00;;;3.30;;
21266;SDS011;10791;53.108;18.326;2023-06-14T14:27:45;5.30;;;2.88;;
21266;SDS011;10791;53.108;18.326;2023-06-14T14:32:50;9.90;;;3.67;;
21266;SDS011;10791;53.108;18.326;2023-06-14T14:37:54;5.22;;;3.35;;
21266;SDS011;10791;53.108;18.326;2023-06-14T14:42:57;9.15;;;3.65;;
21266;SDS011;10791;53.108;18.326;2023-06-14T14:48:01;6.00;;;4.00;;
21266;SDS011;10791;53.108;18.326;2023-06-14T14:53:06;9.90;;;4.93;;
21266;SDS011;10791;53.108;18.326;2023-06-14T14:58:09;6.25;;;4.07;;
21266;SDS011;10791;53.108;18.326;2023-06-14T15:03:14;7.65;;;3.63;;
21266;SDS011;10791;53.108;18.326;2023-06-14T15:08:18;8.80;;;4.20;;
21266;SDS011;10791;53.108;18.326;2023-06-14T15:13:22;7.30;;;3.72;;
21266;SDS011;10791;53.108;18.326;2023-06-14T15:18:25;7.32;;;5.13;;
21266;SDS011;10791;53.108;18.326;2023-06-14T15:23:29;6.78;;;4.68;;
21266;SDS011;10791;53.108;18.326;2023-06-14T15:28:32;8.23;;;4.70;;
21266;SDS011;10791;53.108;18.326;2023-06-14T15:33:36;8.43;;;4.95;;
21266;SDS011;10791;53.108;18.326;2023-06-14T15:38:39;7.50;;;5.20;;
21266;SDS011;10791;53.108;18.326;2023-06-14T15:43:42;8.02;;;5.13;;
21266;SDS011;10791;53.108;18.326;2023-06-14T15:48:46;9.80;;;5.22;;
21266;SDS011;10791;53.108;18.326;2023-06-14T15:53:50;8.73;;;5.40;;
21266;SDS011;10791;53.108;18.326;2023-06-14T15:58:55;7.95;;;5.78;;
21266;SDS011;10791;53.108;18.326;2023-06-14T16:03:59;12.27;;;7.70;;
21266;SDS011;10791;53.108;18.326;2023-06-14T16:09:03;11.27;;;7.72;;
21266;SDS011;10791;53.108;18.326;2023-06-14T16:14:06;9.20;;;7.40;;
21266;SDS011;10791;53.108;18.326;2023-06-14T16:19:10;10.75;;;7.53;;
21266;SDS011;10791;53.108;18.326;2023-06-14T16:24:13;10.23;;;7.15;;
21266;SDS011;10791;53.108;18.326;2023-06-14T16:29:17;11.88;;;7.22;;
21266;SDS011;10791;53.108;18.326;2023-06-14T16:34:21;8.32;;;6.57;;
21266;SDS011;10791;53.108;18.326;2023-06-14T16:39:25;12.63;;;9.63;;
21266;SDS011;10791;53.108;18.326;2023-06-14T16:44:29;12.85;;;8.38;;
21266;SDS011;10791;53.108;18.326;2023-06-14T16:49:32;10.07;;;7.32;;
21266;SDS011;10791;53.108;18.326;2023-06-14T16:54:37;10.35;;;6.80;;
21266;SDS011;10791;53.108;18.326;2023-06-14T16:59:41;10.32;;;7.68;;
21266;SDS011;10791;53.108;18.326;2023-06-14T17:04:45;13.25;;;8.07;;
21266;SDS011;10791;53.108;18.326;2023-06-14T17:09:48;10.68;;;7.78;;
21266;SDS011;10791;53.108;18.326;2023-06-14T17:14:52;10.95;;;7.70;;
21266;SDS011;10791;53.108;18.326;2023-06-14T17:19:55;12.82;;;8.25;;
21266;SDS011;10791;53.108;18.326;2023-06-14T17:24:59;10.80;;;7.93;;
21266;SDS011;10791;53.108;18.326;2023-06-14T17:30:04;10.40;;;8.48;;
21266;SDS011;10791;53.108;18.326;2023-06-14T17:35:09;12.57;;;9.20;;
21266;SDS011;10791;53.108;18.326;2023-06-14T17:40:16;10.65;;;8.82;;
21266;SDS011;10791;53.108;18.326;2023-06-14T17:45:20;14.40;;;8.82;;
21266;SDS011;10791;53.108;18.326;2023-06-14T17:50:26;13.60;;;8.83;;
21266;SDS011;10791;53.108;18.326;2023-06-14T17:55:29;17.63;;;11.40;;
21266;SDS011;10791;53.108;18.326;2023-06-14T18:00:33;18.47;;;13.70;;
21266;SDS011;10791;53.108;18.326;2023-06-14T18:05:37;19.50;;;14.07;;
21266;SDS011;10791;53.108;18.326;2023-06-14T18:10:42;15.87;;;10.33;;
21266;SDS011;10791;53.108;18.326;2023-06-14T18:15:45;13.93;;;10.60;;
21266;SDS011;10791;53.108;18.326;2023-06-14T18:20:48;14.87;;;11.53;;
21266;SDS011;10791;53.108;18.326;2023-06-14T18:25:52;15.97;;;13.13;;
21266;SDS011;10791;53.108;18.326;2023-06-14T18:30:56;12.48;;;10.35;;
21266;SDS011;10791;53.108;18.326;2023-06-14T18:36:01;13.15;;;10.48;;
21266;SDS011;10791;53.108;18.326;2023-06-14T18:41:04;13.32;;;10.18;;
21266;SDS011;10791;53.108;18.326;2023-06-14T18:46:11;11.85;;;10.27;;
21266;SDS011;10791;53.108;18.326;2023-06-14T18:51:15;16.70;;;11.15;;
21266;SDS011;10791;53.108;18.326;2023-06-14T18:56:20;14.02;;;11.75;;
21266;SDS011;10791;53.108;18.326;2023-06-14T19:01:23;15.90;;;11.87;;
21266;SDS011;10791;53.108;18.326;2023-06-14T19:06:28;14.00;;;11.98;;
21266;SDS011;10791;53.108;18.326;2023-06-14T19:11:31;14.50;;;12.98;;
21266;SDS011;10791;53.108;18.326;2023-06-14T19:16:36;14.45;;;12.82;;
21266;SDS011;10791;53.108;18.326;2023-06-14T19:21:45;15.63;;;12.70;;
21266;SDS011;10791;53.108;18.326;2023-06-14T19:26:49;16.90;;;12.60;;
21266;SDS011;10791;53.108;18.326;2023-06-14T19:31:53;15.33;;;12.27;;
21266;SDS011;10791;53.108;18.326;2023-06-14T19:36:57;17.20;;;12.90;;
21266;SDS011;10791;53.108;18.326;2023-06-14T19:42:00;13.90;;;12.13;;
21266;SDS011;10791;53.108;18.326;2023-06-14T19:47:04;11.10;;;9.88;;
21266;SDS011;10791;53.108;18.326;2023-06-14T19:52:08;13.25;;;10.15;;
21266;SDS011;10791;53.108;18.326;2023-06-14T19:57:12;16.15;;;9.98;;
21266;SDS011;10791;53.108;18.326;2023-06-14T20:02:18;12.95;;;8.85;;
21266;SDS011;10791;53.108;18.326;2023-06-14T20:07:23;12.30;;;8.60;;
21266;SDS011;10791;53.108;18.326;2023-06-14T20:12:26;11.07;;;9.47;;
21266;SDS011;10791;53.108;18.326;2023-06-14T20:17:32;13.73;;;10.70;;
21266;SDS011;10791;53.108;18.326;2023-06-14T20:22:35;13.87;;;10.27;;
21266;SDS011;10791;53.108;18.326;2023-06-14T20:27:42;13.40;;;9.47;;
21266;SDS011;10791;53.108;18.326;2023-06-14T20:32:46;11.37;;;8.47;;
21266;SDS011;10791;53.108;18.326;2023-06-14T20:37:50;9.40;;;7.93;;
21266;SDS011;10791;53.108;18.326;2023-06-14T20:42:53;12.40;;;8.57;;
21266;SDS011;10791;53.108;18.326;2023-06-14T20:48:01;11.40;;;8.63;;
21266;SDS011;10791;53.108;18.326;2023-06-14T20:53:08;12.50;;;9.00;;
21266;SDS011;10791;53.108;18.326;2023-06-14T20:58:12;14.93;;;8.17;;
21266;SDS011;10791;53.108;18.326;2023-06-14T21:03:18;9.47;;;7.80;;
21266;SDS011;10791;53.108;18.326;2023-06-14T21:08:22;9.07;;;7.20;;
21266;SDS011;10791;53.108;18.326;2023-06-14T21:13:25;9.07;;;7.47;;
21266;SDS011;10791;53.108;18.326;2023-06-14T21:18:28;11.67;;;7.47;;
21266;SDS011;10791;53.108;18.326;2023-06-14T21:23:32;11.03;;;7.43;;
21266;SDS011;10791;53.108;18.326;2023-06-14T21:28:35;9.17;;;7.40;;
21266;SDS011;10791;53.108;18.326;2023-06-14T21:33:39;8.70;;;6.73;;
21266;SDS011;10791;53.108;18.326;2023-06-14T21:38:42;9.00;;;6.00;;
21266;SDS011;10791;53.108;18.326;2023-06-14T21:43:46;7.97;;;6.50;;
21266;SDS011;10791;53.108;18.326;2023-06-14T21:48:49;9.87;;;6.50;;
21266;SDS011;10791;53.108;18.326;2023-06-14T21:53:54;9.47;;;6.87;;
21266;SDS011;10791;53.108;18.326;2023-06-14T21:58:58;10.10;;;7.03;;
21266;SDS011;10791;53.108;18.326;2023-06-14T22:04:02;8.40;;;6.47;;
21266;SDS011;10791;53.108;18.326;2023-06-14T22:09:06;10.60;;;6.70;;
21266;SDS011;10791;53.108;18.326;2023-06-14T22:14:10;8.67;;;7.40;;
21266;SDS011;10791;53.108;18.326;2023-06-14T22:19:14;11.43;;;7.07;;
21266;SDS011;10791;53.108;18.326;2023-06-14T22:24:18;11.00;;;6.73;;
21266;SDS011;10791;53.108;18.326;2023-06-14T22:29:22;12.87;;;8.00;;
21266;SDS011;10791;53.108;18.326;2023-06-14T22:34:27;7.87;;;6.10;;
21266;SDS011;10791;53.108;18.326;2023-06-14T22:39:32;9.07;;;6.33;;
21266;SDS011;10791;53.108;18.326;2023-06-14T22:44:36;9.57;;;6.63;;
21266;SDS011;10791;53.108;18.326;2023-06-14T22:49:40;7.43;;;6.33;;
21266;SDS011;10791;53.108;18.326;2023-06-14T22:54:43;7.70;;;6.60;;
21266;SDS011;10791;53.108;18.326;2023-06-14T22:59:47;8.60;;;6.43;;
21266;SDS011;10791;53.108;18.326;2023-06-14T23:04:51;7.63;;;5.87;;
21266;SDS011;10791;53.108;18.326;2023-06-14T23:09:56;9.43;;;7.00;;
21266;SDS011;10791;53.108;18.326;2023-06-14T23:15:00;7.97;;;6.10;;
21266;SDS011;10791;53.108;18.326;2023-06-14T23:20:07;9.13;;;6.90;;
21266;SDS011;10791;53.108;18.326;2023-06-14T23:25:15;9.27;;;7.63;;
21266;SDS011;10791;53.108;18.326;2023-06-14T23:30:19;9.00;;;6.67;;
21266;SDS011;10791;53.108;18.326;2023-06-14T23:35:23;10.10;;;6.83;;
21266;SDS011;10791;53.108;18.326;2023-06-14T23:40:29;10.97;;;6.10;;
21266;SDS011;10791;53.108;18.326;2023-06-14T23:45:33;12.03;;;7.17;;
21266;SDS011;10791;53.108;18.326;2023-06-14T23:50:37;8.03;;;6.10;;
21266;SDS011;10791;53.108;18.326;2023-06-14T23:55:41;9.87;;;5.90;;
